Time;durP1;ratioP1;P1;durP2;ratioP2;P2;SDS_P1;SDS_P2;PMS_P1;PMS_P2;Temp;Humidity;BMP_temperature;BMP_pressure;BME280_temperature;BME280_humidity;BME280_pressure;Samples;Min_cycle;Max_cycle;Signal;HPM_P1;HPM_P2
2021/12/08 00:00:37;;;;;;;6.20;3.60;;;;;;;;;;5074005;28;20448;-73
2021/12/08 00:03:06;;;;;;;4.40;3.73;;;;;;;;;;5073755;28;20462;-73
2021/12/08 00:05:33;;;;;;;7.57;3.60;;;;;;;;;;5073707;28;20463;-73
2021/12/08 00:08:02;;;;;;;8.10;4.20;;;;;;;;;;5073524;28;20455;-73
2021/12/08 00:10:52;;;;;;;5.53;4.17;;;;;;;;;;5073754;28;20805;-73
2021/12/08 00:13:19;;;;;;;4.83;3.83;;;;;;;;;;5073728;28;20455;-73
2021/12/08 00:15:48;;;;;;;11.43;4.50;;;;;;;;;;5073699;28;20533;-73
2021/12/08 00:18:16;;;;;;;4.70;4.27;;;;;;;;;;5073667;28;20455;-73
2021/12/08 00:20:45;;;;;;;5.70;3.60;;;;;;;;;;5073552;28;20462;-73
2021/12/08 00:23:14;;;;;;;5.43;3.87;;;;;;;;;;5073503;28;20456;-73
2021/12/08 00:25:42;;;;;;;6.10;4.27;;;;;;;;;;5073853;28;20928;-73
2021/12/08 00:28:09;;;;;;;5.07;3.83;;;;;;;;;;5073188;28;20466;-73
2021/12/08 00:30:38;;;;;;;4.00;3.30;;;;;;;;;;5073583;28;20450;-73
2021/12/08 00:33:05;;;;;;;7.37;4.27;;;;;;;;;;5073529;28;20455;-73
2021/12/08 00:35:32;;;;;;;5.53;3.50;;;;;;;;;;5073386;28;20455;-73
2021/12/08 00:38:00;;;;;;;11.20;4.50;;;;;;;;;;5072855;28;20491;-73
2021/12/08 00:40:29;;;;;;;10.43;5.43;;;;;;;;;;5073360;28;20452;-73
2021/12/08 00:42:57;;;;;;;6.03;3.53;;;;;;;;;;5073094;28;20490;-73
2021/12/08 00:45:25;;;;;;;21.27;4.50;;;;;;;;;;5073153;28;20463;-73
2021/12/08 00:47:53;;;;;;;5.37;4.20;;;;;;;;;;5072878;28;20451;-74
2021/12/08 00:50:22;;;;;;;7.00;3.80;;;;;;;;;;5073267;28;20463;-73
2021/12/08 00:52:51;;;;;;;14.00;4.57;;;;;;;;;;5073064;28;20459;-73
2021/12/08 00:55:18;;;;;;;8.60;4.70;;;;;;;;;;5073126;28;20478;-73
2021/12/08 00:57:47;;;;;;;4.37;3.97;;;;;;;;;;5072891;28;20565;-73
2021/12/08 01:00:16;;;;;;;6.10;4.30;;;;;;;;;;5073093;28;20464;-73
2021/12/08 01:02:44;;;;;;;8.43;4.53;;;;;;;;;;5072415;28;20965;-73
2021/12/08 01:05:11;;;;;;;8.10;4.60;;;;;;;;;;5072923;28;20797;-73
2021/12/08 01:07:39;;;;;;;6.53;4.20;;;;;;;;;;5073050;28;20462;-73
2021/12/08 01:10:08;;;;;;;9.50;4.83;;;;;;;;;;5072878;28;20878;-73
2021/12/08 01:12:35;;;;;;;12.97;5.20;;;;;;;;;;5072863;28;20448;-73
2021/12/08 01:15:04;;;;;;;9.47;4.60;;;;;;;;;;5072770;28;20455;-73
2021/12/08 01:17:32;;;;;;;6.57;4.70;;;;;;;;;;5072773;28;20494;-73
2021/12/08 01:19:59;;;;;;;5.70;4.83;;;;;;;;;;5072808;28;20455;-73
2021/12/08 01:22:26;;;;;;;12.27;5.20;;;;;;;;;;5072918;28;20459;-73
2021/12/08 01:24:53;;;;;;;5.97;4.30;;;;;;;;;;5072739;28;20454;-73
2021/12/08 01:27:20;;;;;;;7.30;4.77;;;;;;;;;;5072684;28;20849;-73
2021/12/08 01:29:48;;;;;;;12.40;3.70;;;;;;;;;;5072740;28;20463;-73
2021/12/08 01:32:19;;;;;;;9.07;4.37;;;;;;;;;;5072757;28;21022;-73
2021/12/08 01:34:46;;;;;;;8.47;4.93;;;;;;;;;;5072894;28;20508;-73
2021/12/08 01:37:13;;;;;;;9.60;5.70;;;;;;;;;;5072136;28;20499;-73
2021/12/08 01:39:40;;;;;;;11.00;5.47;;;;;;;;;;5072738;28;20459;-73
2021/12/08 01:42:15;;;;;;;6.93;5.10;;;;;;;;;;5072581;28;20478;-73
2021/12/08 01:47:29;;;;;;;10.67;4.23;;;;;;;;;;5072681;28;20507;-73
2021/12/08 01:49:56;;;;;;;10.47;5.43;;;;;;;;;;5072482;28;20460;-73
2021/12/08 01:52:24;;;;;;;5.00;4.00;;;;;;;;;;5072714;28;20444;-73
2021/12/08 01:54:52;;;;;;;10.20;5.10;;;;;;;;;;5072486;28;20451;-73
2021/12/08 01:57:19;;;;;;;5.10;4.07;;;;;;;;;;5072388;28;20491;-73
2021/12/08 01:59:46;;;;;;;5.23;3.60;;;;;;;;;;5072531;28;20458;-73
2021/12/08 02:02:14;;;;;;;12.60;3.97;;;;;;;;;;5072499;28;20462;-73
2021/12/08 02:04:43;;;;;;;6.10;3.73;;;;;;;;;;5072367;28;20456;-73
2021/12/08 02:07:10;;;;;;;5.27;4.07;;;;;;;;;;5072070;28;20447;-73
2021/12/08 02:09:37;;;;;;;7.30;4.70;;;;;;;;;;5072418;28;20455;-73
2021/12/08 02:12:05;;;;;;;9.80;4.80;;;;;;;;;;5072577;28;20554;-73
2021/12/08 02:14:34;;;;;;;8.10;4.50;;;;;;;;;;5072947;28;20454;-73
2021/12/08 02:17:01;;;;;;;5.50;3.30;;;;;;;;;;5075475;28;20510;-73
2021/12/08 02:19:28;;;;;;;10.40;4.63;;;;;;;;;;5076021;28;20929;-73
2021/12/08 02:21:57;;;;;;;12.30;4.53;;;;;;;;;;5075680;28;20455;-73
2021/12/08 02:24:24;;;;;;;6.07;4.80;;;;;;;;;;5075799;28;20456;-73
2021/12/08 02:26:52;;;;;;;5.90;3.80;;;;;;;;;;5075476;28;20459;-73
2021/12/08 02:29:26;;;;;;;6.63;4.70;;;;;;;;;;5075931;28;21028;-73
2021/12/08 02:31:59;;;;;;;5.17;3.50;;;;;;;;;;5075781;28;20478;-73
2021/12/08 02:48:11;;;;;;;10.63;5.40;;;;;;;;;;5075242;28;20427;-73
2021/12/08 02:50:43;;;;;;;5.80;4.20;;;;;;;;;;5075342;28;20463;-73
2021/12/08 02:53:12;;;;;;;7.77;6.00;;;;;;;;;;5075230;28;20809;-73
2021/12/08 02:55:40;;;;;;;7.70;4.00;;;;;;;;;;5075178;28;20463;-73
2021/12/08 02:58:08;;;;;;;5.83;4.10;;;;;;;;;;5074813;28;20491;-73
2021/12/08 03:00:36;;;;;;;8.27;4.63;;;;;;;;;;5075080;28;20452;-73
2021/12/08 03:03:04;;;;;;;9.47;5.30;;;;;;;;;;5074903;28;20454;-73
2021/12/08 03:05:32;;;;;;;10.17;4.77;;;;;;;;;;5075127;28;20873;-73
2021/12/08 03:07:59;;;;;;;8.57;4.73;;;;;;;;;;5074781;28;20457;-73
2021/12/08 03:10:29;;;;;;;9.80;5.00;;;;;;;;;;5074946;28;20454;-72
2021/12/08 03:12:56;;;;;;;5.40;3.77;;;;;;;;;;5074843;28;20447;-72
2021/12/08 03:15:23;;;;;;;4.97;3.60;;;;;;;;;;5074886;28;20452;-73
2021/12/08 03:17:50;;;;;;;8.03;4.90;;;;;;;;;;5074350;28;20479;-73
2021/12/08 03:20:21;;;;;;;10.30;4.20;;;;;;;;;;5074573;28;20458;-73
2021/12/08 03:22:50;;;;;;;6.70;4.00;;;;;;;;;;5074841;28;20447;-73
2021/12/08 03:25:20;;;;;;;6.97;4.27;;;;;;;;;;5074039;28;20458;-73
2021/12/08 03:27:54;;;;;;;4.33;3.60;;;;;;;;;;5074526;28;20451;-73
2021/12/08 03:30:27;;;;;;;4.20;3.20;;;;;;;;;;5074391;28;20459;-73
2021/12/08 03:32:56;;;;;;;3.30;3.00;;;;;;;;;;5074320;28;20535;-73
2021/12/08 03:35:24;;;;;;;8.63;5.03;;;;;;;;;;5074507;28;20929;-73
2021/12/08 03:37:51;;;;;;;5.80;4.70;;;;;;;;;;5074065;28;20494;-73
2021/12/08 03:40:20;;;;;;;4.97;3.20;;;;;;;;;;5074466;28;20463;-73
2021/12/08 03:42:50;;;;;;;6.80;4.27;;;;;;;;;;5074258;28;20455;-73
2021/12/08 03:45:18;;;;;;;8.27;5.40;;;;;;;;;;5074303;28;20456;-73
2021/12/08 03:47:47;;;;;;;5.77;4.57;;;;;;;;;;5074070;28;20455;-73
2021/12/08 03:50:15;;;;;;;7.10;4.90;;;;;;;;;;5074151;28;20480;-73
2021/12/08 03:52:42;;;;;;;5.10;3.70;;;;;;;;;;5073991;28;20455;-73
2021/12/08 03:55:12;;;;;;;8.60;4.80;;;;;;;;;;5074101;28;20819;-73
2021/12/08 03:57:39;;;;;;;10.63;4.20;;;;;;;;;;5073727;28;20499;-72
2021/12/08 04:00:10;;;;;;;8.60;4.10;;;;;;;;;;5073940;28;20979;-72
2021/12/08 04:02:37;;;;;;;6.33;4.40;;;;;;;;;;5073948;28;20454;-73
2021/12/08 04:05:04;;;;;;;6.37;4.20;;;;;;;;;;5073616;28;20456;-73
2021/12/08 04:07:31;;;;;;;11.10;4.07;;;;;;;;;;5073719;28;20448;-73
2021/12/08 04:09:59;;;;;;;4.90;4.23;;;;;;;;;;5073748;28;20470;-73
2021/12/08 04:12:27;;;;;;;8.00;4.60;;;;;;;;;;5073677;28;20464;-73
2021/12/08 04:14:56;;;;;;;6.77;4.00;;;;;;;;;;5073549;28;20944;-73
2021/12/08 04:17:27;;;;;;;5.77;4.60;;;;;;;;;;5073476;28;20920;-72
2021/12/08 04:19:55;;;;;;;6.80;4.33;;;;;;;;;;5073729;28;20972;-73
2021/12/08 04:22:23;;;;;;;6.93;4.10;;;;;;;;;;5073623;28;20451;-73
2021/12/08 04:24:52;;;;;;;8.50;5.20;;;;;;;;;;5073412;28;20941;-73
2021/12/08 04:27:20;;;;;;;6.73;4.70;;;;;;;;;;5073212;28;20451;-73
2021/12/08 04:29:49;;;;;;;14.33;4.77;;;;;;;;;;5073494;28;20451;-72
2021/12/08 04:32:16;;;;;;;6.33;4.07;;;;;;;;;;5073447;28;20483;-72
2021/12/08 04:34:46;;;;;;;4.17;3.77;;;;;;;;;;5073341;28;20789;-72
2021/12/08 04:37:19;;;;;;;8.47;4.60;;;;;;;;;;5072214;28;20471;-73
2021/12/08 04:39:56;;;;;;;13.73;4.97;;;;;;;;;;5073244;28;20452;-73
2021/12/08 04:42:36;;;;;;;13.03;5.20;;;;;;;;;;5073342;28;20492;-72
2021/12/08 04:45:10;;;;;;;11.80;5.00;;;;;;;;;;5073055;28;20451;-72
2021/12/08 04:47:51;;;;;;;8.27;4.20;;;;;;;;;;5073309;28;20861;-73
2021/12/08 04:50:36;;;;;;;7.30;4.23;;;;;;;;;;5073250;28;20451;-73
2021/12/08 04:53:11;;;;;;;9.47;5.00;;;;;;;;;;5073104;28;20458;-73
2021/12/08 05:01:18;;;;;;;7.80;4.53;;;;;;;;;;5072976;28;20446;-72
2021/12/08 05:04:05;;;;;;;5.40;4.17;;;;;;;;;;5073026;28;20550;-72
2021/12/08 05:06:44;;;;;;;4.60;4.10;;;;;;;;;;5073014;28;20559;-72
2021/12/08 05:09:14;;;;;;;5.00;4.20;;;;;;;;;;5072893;28;20455;-73
2021/12/08 05:11:43;;;;;;;7.50;5.77;;;;;;;;;;5073368;28;20454;-73
2021/12/08 05:14:12;;;;;;;8.10;6.30;;;;;;;;;;5072715;28;20542;-73
2021/12/08 05:16:41;;;;;;;17.67;12.33;;;;;;;;;;5072788;28;20456;-73
2021/12/08 05:19:09;;;;;;;46.87;25.47;;;;;;;;;;5072698;28;20506;-73
2021/12/08 05:21:39;;;;;;;15.07;10.53;;;;;;;;;;5072869;28;20459;-73
2021/12/08 05:24:09;;;;;;;14.80;8.67;;;;;;;;;;5072833;28;20847;-73
2021/12/08 05:26:39;;;;;;;9.73;6.27;;;;;;;;;;5073119;28;20443;-73
2021/12/08 05:29:08;;;;;;;5.80;4.40;;;;;;;;;;5072716;28;20443;-73
2021/12/08 05:31:37;;;;;;;6.13;4.57;;;;;;;;;;5072712;28;20459;-73
2021/12/08 05:34:04;;;;;;;8.07;5.10;;;;;;;;;;5072671;28;20463;-72
2021/12/08 05:36:32;;;;;;;7.00;4.13;;;;;;;;;;5072707;28;20451;-73
2021/12/08 05:39:02;;;;;;;7.00;4.30;;;;;;;;;;5072536;28;20479;-73
2021/12/08 05:41:30;;;;;;;12.67;6.53;;;;;;;;;;5072758;28;20513;-73
2021/12/08 05:43:58;;;;;;;11.10;6.30;;;;;;;;;;5072755;28;20451;-73
2021/12/08 05:46:31;;;;;;;7.47;6.17;;;;;;;;;;5072667;28;20452;-73
2021/12/08 05:48:58;;;;;;;8.17;5.80;;;;;;;;;;5073603;28;20470;-73
2021/12/08 05:51:27;;;;;;;13.80;6.37;;;;;;;;;;5076573;28;20789;-73
2021/12/08 05:53:56;;;;;;;7.67;5.37;;;;;;;;;;5076285;28;20455;-73
2021/12/08 05:56:24;;;;;;;7.53;6.30;;;;;;;;;;5076444;28;20466;-73
2021/12/08 05:58:53;;;;;;;9.17;6.70;;;;;;;;;;5075967;28;20496;-72
2021/12/08 06:01:22;;;;;;;11.40;6.80;;;;;;;;;;5076113;28;20455;-72
2021/12/08 06:03:50;;;;;;;13.70;7.33;;;;;;;;;;5076097;28;20847;-72
2021/12/08 06:06:18;;;;;;;13.53;5.93;;;;;;;;;;5076128;28;20447;-72
2021/12/08 06:08:45;;;;;;;10.50;5.87;;;;;;;;;;5076038;28;20821;-73
2021/12/08 06:11:12;;;;;;;9.97;6.97;;;;;;;;;;5075882;28;20463;-73
2021/12/08 06:13:42;;;;;;;16.37;7.10;;;;;;;;;;5076191;28;20455;-73
2021/12/08 06:16:12;;;;;;;7.47;5.70;;;;;;;;;;5076060;28;20455;-72
2021/12/08 06:18:40;;;;;;;8.67;6.53;;;;;;;;;;5075630;28;20487;-72
2021/12/08 06:21:08;;;;;;;8.60;5.73;;;;;;;;;;5075816;28;20944;-73
2021/12/08 06:23:36;;;;;;;10.57;4.87;;;;;;;;;;5075844;28;20483;-73
2021/12/08 06:26:03;;;;;;;10.43;6.50;;;;;;;;;;5075726;28;20451;-73
2021/12/08 06:28:30;;;;;;;10.10;6.47;;;;;;;;;;5075648;28;20474;-73
2021/12/08 06:30:59;;;;;;;8.70;6.83;;;;;;;;;;5075513;28;20822;-73
2021/12/08 06:33:26;;;;;;;15.33;7.20;;;;;;;;;;5075781;28;20944;-73
2021/12/08 06:35:55;;;;;;;12.93;8.23;;;;;;;;;;5075750;28;20470;-73
2021/12/08 06:38:23;;;;;;;10.50;7.13;;;;;;;;;;5075258;28;20487;-73
2021/12/08 06:40:51;;;;;;;7.93;5.77;;;;;;;;;;5075586;28;20443;-73
2021/12/08 06:43:20;;;;;;;8.27;6.20;;;;;;;;;;5075365;28;20471;-73
2021/12/08 06:45:48;;;;;;;10.47;6.50;;;;;;;;;;5075632;28;20857;-73
2021/12/08 06:48:19;;;;;;;8.97;6.30;;;;;;;;;;5075259;28;20454;-73
2021/12/08 06:50:50;;;;;;;10.57;5.70;;;;;;;;;;5075470;28;20448;-73
2021/12/08 06:53:17;;;;;;;9.30;6.53;;;;;;;;;;5075261;28;20459;-73
2021/12/08 06:55:46;;;;;;;7.90;5.10;;;;;;;;;;5075100;28;20466;-73
2021/12/08 06:58:18;;;;;;;9.03;5.50;;;;;;;;;;5074981;28;21061;-73
2021/12/08 07:00:53;;;;;;;10.87;6.53;;;;;;;;;;5074288;28;20464;-73
2021/12/08 07:03:32;;;;;;;31.53;9.10;;;;;;;;;;5075307;28;20451;-73
2021/12/08 07:06:10;;;;;;;40.43;8.57;;;;;;;;;;5075029;28;20490;-73
2021/12/08 07:08:39;;;;;;;15.23;6.80;;;;;;;;;;5074767;28;20472;-73
2021/12/08 07:11:07;;;;;;;13.10;5.80;;;;;;;;;;5074807;28;20459;-73
2021/12/08 07:13:35;;;;;;;13.00;7.03;;;;;;;;;;5074843;28;20460;-73
2021/12/08 07:16:05;;;;;;;33.60;10.77;;;;;;;;;;5074790;28;20447;-73
2021/12/08 07:18:39;;;;;;;26.60;13.30;;;;;;;;;;5074574;28;20488;-73
2021/12/08 07:21:07;;;;;;;9.70;6.33;;;;;;;;;;5074900;28;20496;-73
2021/12/08 07:23:37;;;;;;;33.20;7.50;;;;;;;;;;5074749;28;20460;-73
2021/12/08 07:26:06;;;;;;;8.83;6.10;;;;;;;;;;5074589;28;20972;-73
2021/12/08 07:28:34;;;;;;;9.73;6.03;;;;;;;;;;5074666;28;20433;-73
2021/12/08 07:31:03;;;;;;;6.20;4.70;;;;;;;;;;5074511;28;20937;-73
2021/12/08 07:33:30;;;;;;;12.43;5.80;;;;;;;;;;5074508;28;20455;-73
2021/12/08 07:36:00;;;;;;;28.53;7.70;;;;;;;;;;5074367;28;20934;-73
2021/12/08 07:38:29;;;;;;;7.23;4.40;;;;;;;;;;5074227;28;20491;-73
2021/12/08 07:40:58;;;;;;;8.40;5.67;;;;;;;;;;5074225;28;20456;-73
2021/12/08 07:43:27;;;;;;;6.00;5.00;;;;;;;;;;5074315;28;20451;-73
2021/12/08 07:46:02;;;;;;;32.67;8.80;;;;;;;;;;5074147;28;20466;-73
2021/12/08 07:48:34;;;;;;;19.30;8.80;;;;;;;;;;5074089;28;20483;-73
2021/12/08 07:51:04;;;;;;;28.07;10.83;;;;;;;;;;5073894;28;20551;-73
2021/12/08 07:53:32;;;;;;;37.17;16.47;;;;;;;;;;5074436;28;20463;-73
2021/12/08 07:56:03;;;;;;;21.43;12.63;;;;;;;;;;5074062;28;20455;-73
2021/12/08 07:58:30;;;;;;;14.93;9.10;;;;;;;;;;5073848;28;20992;-73
2021/12/08 08:00:59;;;;;;;10.00;6.53;;;;;;;;;;5063826;28;20497;-73
2021/12/08 08:03:28;;;;;;;10.17;6.03;;;;;;;;;;5072490;28;20464;-73
2021/12/08 08:05:56;;;;;;;8.33;5.80;;;;;;;;;;5072282;28;20503;-73
2021/12/08 08:08:30;;;;;;;11.70;5.80;;;;;;;;;;5072101;28;20464;-73
2021/12/08 08:10:58;;;;;;;8.47;5.10;;;;;;;;;;5072151;28;20468;-73
2021/12/08 08:13:26;;;;;;;8.93;5.30;;;;;;;;;;5072159;28;20479;-73
2021/12/08 08:15:56;;;;;;;8.53;5.50;;;;;;;;;;5071693;28;20987;-73
2021/12/08 08:18:27;;;;;;;9.90;5.70;;;;;;;;;;5072098;28;20472;-73
2021/12/08 08:20:56;;;;;;;11.90;6.13;;;;;;;;;;5072181;28;20494;-73
2021/12/08 08:23:27;;;;;;;9.10;5.13;;;;;;;;;;5072093;28;20475;-73
2021/12/08 08:25:55;;;;;;;9.77;6.50;;;;;;;;;;5071594;28;20885;-73
2021/12/08 08:28:23;;;;;;;8.70;5.83;;;;;;;;;;5071584;28;20980;-73
2021/12/08 08:30:51;;;;;;;7.70;5.53;;;;;;;;;;5071507;28;20474;-73
2021/12/08 08:33:18;;;;;;;10.13;5.73;;;;;;;;;;5071804;28;20474;-73
2021/12/08 08:35:48;;;;;;;9.03;6.13;;;;;;;;;;5071864;28;20491;-73
2021/12/08 08:38:16;;;;;;;9.20;6.60;;;;;;;;;;5071575;28;20980;-73
2021/12/08 08:40:47;;;;;;;7.33;6.07;;;;;;;;;;5071657;28;20468;-73
2021/12/08 08:43:15;;;;;;;12.20;6.67;;;;;;;;;;5071562;28;20467;-73
2021/12/08 08:45:44;;;;;;;6.63;5.73;;;;;;;;;;5071457;28;20935;-73
2021/12/08 08:48:13;;;;;;;12.93;6.60;;;;;;;;;;5071274;28;20476;-73
2021/12/08 08:50:42;;;;;;;6.77;4.90;;;;;;;;;;5071611;28;20475;-73
2021/12/08 08:53:09;;;;;;;5.67;5.10;;;;;;;;;;5071130;28;20468;-73
2021/12/08 08:55:38;;;;;;;7.60;4.90;;;;;;;;;;5071504;28;20467;-73
2021/12/08 08:58:08;;;;;;;10.57;5.83;;;;;;;;;;5071569;28;20997;-73
2021/12/08 09:00:37;;;;;;;7.43;4.63;;;;;;;;;;5071331;28;20483;-73
2021/12/08 09:03:05;;;;;;;9.30;5.90;;;;;;;;;;5071249;28;20476;-73
2021/12/08 09:05:34;;;;;;;10.53;5.53;;;;;;;;;;5071670;28;20475;-73
2021/12/08 09:08:03;;;;;;;8.00;4.53;;;;;;;;;;5070972;28;20486;-73
2021/12/08 09:10:32;;;;;;;7.83;5.23;;;;;;;;;;5071595;28;20459;-73
2021/12/08 09:13:03;;;;;;;6.67;4.13;;;;;;;;;;5071355;28;20862;-73
2021/12/08 09:15:34;;;;;;;7.97;4.27;;;;;;;;;;5071247;28;20480;-74
2021/12/08 09:18:03;;;;;;;6.13;3.87;;;;;;;;;;5071284;28;20841;-73
2021/12/08 09:20:32;;;;;;;5.57;4.10;;;;;;;;;;5071158;28;20520;-73
2021/12/08 09:23:02;;;;;;;5.57;3.80;;;;;;;;;;5071068;28;20468;-73
2021/12/08 09:25:32;;;;;;;8.80;5.73;;;;;;;;;;5075051;28;20473;-73
2021/12/08 09:28:06;;;;;;;10.23;6.37;;;;;;;;;;5074810;28;20486;-73
2021/12/08 09:30:42;;;;;;;5.10;3.23;;;;;;;;;;5075622;28;20922;-73
2021/12/08 09:33:11;;;;;;;5.10;3.87;;;;;;;;;;5074304;28;20486;-73
2021/12/08 09:35:41;;;;;;;6.90;3.03;;;;;;;;;;5074780;28;20482;-73
2021/12/08 09:38:11;;;;;;;6.23;3.70;;;;;;;;;;5066970;28;20989;-73
2021/12/08 09:40:40;;;;;;;9.47;4.63;;;;;;;;;;5056709;28;20879;-73
2021/12/08 09:43:09;;;;;;;5.37;4.20;;;;;;;;;;5055777;28;20559;-73
2021/12/08 09:45:39;;;;;;;6.17;4.30;;;;;;;;;;5056322;28;20449;-73
2021/12/08 09:48:07;;;;;;;11.27;4.90;;;;;;;;;;5056173;28;20475;-73
2021/12/08 09:50:34;;;;;;;5.43;4.07;;;;;;;;;;5056557;28;20448;-73
2021/12/08 09:53:02;;;;;;;15.50;6.10;;;;;;;;;;5056340;28;20483;-72
2021/12/08 09:55:29;;;;;;;8.37;4.43;;;;;;;;;;5056471;28;20456;-73
2021/12/08 09:57:57;;;;;;;8.17;5.17;;;;;;;;;;5056232;28;20839;-73
2021/12/08 10:00:26;;;;;;;8.77;5.47;;;;;;;;;;5056228;28;20484;-73
2021/12/08 10:02:58;;;;;;;8.90;6.17;;;;;;;;;;5056129;28;20445;-73
2021/12/08 10:05:26;;;;;;;12.97;5.30;;;;;;;;;;5056198;28;20494;-73
2021/12/08 10:07:53;;;;;;;9.10;5.77;;;;;;;;;;5055887;28;20510;-73
2021/12/08 10:10:20;;;;;;;7.27;5.00;;;;;;;;;;5056034;28;20800;-73
2021/12/08 10:12:47;;;;;;;7.93;5.63;;;;;;;;;;5056095;28;20440;-73
2021/12/08 10:15:16;;;;;;;14.90;5.70;;;;;;;;;;5055988;28;20463;-73
2021/12/08 10:17:43;;;;;;;10.73;5.10;;;;;;;;;;5056762;28;20463;-73
2021/12/08 10:20:14;;;;;;;6.43;3.90;;;;;;;;;;5075757;28;20820;-73
2021/12/08 10:22:41;;;;;;;4.60;3.70;;;;;;;;;;5075893;28;20467;-73
2021/12/08 10:25:10;;;;;;;16.90;7.10;;;;;;;;;;5075714;28;20469;-73
2021/12/08 10:27:55;;;;;;;22.60;6.37;;;;;;;;;;5075780;28;20463;-73
2021/12/08 10:30:23;;;;;;;10.47;5.70;;;;;;;;;;5075712;28;20463;-73
2021/12/08 10:32:53;;;;;;;10.87;6.13;;;;;;;;;;5075627;28;20504;-73
2021/12/08 10:35:41;;;;;;;11.17;5.47;;;;;;;;;;5074458;28;20452;-73
2021/12/08 10:38:10;;;;;;;26.07;6.70;;;;;;;;;;5075199;28;20467;-73
2021/12/08 10:40:37;;;;;;;12.03;5.70;;;;;;;;;;5075620;28;20489;-73
2021/12/08 10:43:13;;;;;;;8.50;6.40;;;;;;;;;;5075352;28;20464;-73
2021/12/08 10:45:40;;;;;;;18.87;6.00;;;;;;;;;;5075570;28;20447;-73
2021/12/08 10:48:08;;;;;;;13.57;6.50;;;;;;;;;;5075189;28;20455;-73
2021/12/08 10:56:09;;;;;;;8.60;5.27;;;;;;;;;;5075085;28;20913;-74
2021/12/08 10:58:37;;;;;;;18.90;8.47;;;;;;;;;;5075033;28;20456;-73
2021/12/08 11:01:09;;;;;;;7.27;5.80;;;;;;;;;;5074876;28;20579;-73
2021/12/08 11:03:38;;;;;;;15.00;6.90;;;;;;;;;;5075156;28;20460;-73
2021/12/08 11:06:05;;;;;;;14.80;6.00;;;;;;;;;;5075117;28;20455;-73
2021/12/08 11:08:35;;;;;;;26.80;9.20;;;;;;;;;;5075011;28;20440;-73
2021/12/08 11:11:05;;;;;;;13.07;5.73;;;;;;;;;;5074650;28;20448;-73
2021/12/08 11:13:33;;;;;;;14.03;6.00;;;;;;;;;;5075159;28;20462;-73
2021/12/08 11:16:02;;;;;;;11.10;6.60;;;;;;;;;;5074697;28;20460;-73
2021/12/08 11:18:30;;;;;;;17.20;7.80;;;;;;;;;;5074582;28;20458;-73
2021/12/08 11:20:59;;;;;;;16.93;6.97;;;;;;;;;;5074620;28;21059;-73
2021/12/08 11:26:14;;;;;;;23.40;8.50;;;;;;;;;;5074750;28;20443;-73
2021/12/08 11:28:42;;;;;;;19.30;8.07;;;;;;;;;;5074620;28;20515;-74
2021/12/08 11:31:11;;;;;;;13.13;6.93;;;;;;;;;;5074557;28;20811;-73
2021/12/08 11:33:43;;;;;;;24.30;7.57;;;;;;;;;;5074590;28;20509;-73
2021/12/08 11:36:15;;;;;;;43.30;10.40;;;;;;;;;;5074460;28;20831;-73
2021/12/08 11:38:43;;;;;;;24.80;9.70;;;;;;;;;;5074333;28;20463;-73
2021/12/08 11:41:12;;;;;;;16.90;6.70;;;;;;;;;;5074234;28;20492;-73
2021/12/08 11:43:40;;;;;;;5.00;4.50;;;;;;;;;;5074250;28;20482;-73
2021/12/08 11:46:14;;;;;;;8.13;5.73;;;;;;;;;;5073899;28;20459;-73
2021/12/08 11:48:52;;;;;;;6.63;5.60;;;;;;;;;;5074172;28;20451;-73
2021/12/08 11:51:19;;;;;;;9.03;5.40;;;;;;;;;;5074204;28;20886;-74
2021/12/08 11:53:47;;;;;;;9.30;6.20;;;;;;;;;;5074243;28;20482;-73
2021/12/08 11:56:28;;;;;;;11.13;5.90;;;;;;;;;;5074111;28;20460;-73
2021/12/08 11:58:57;;;;;;;8.27;5.33;;;;;;;;;;5073948;28;20455;-74
2021/12/08 12:01:25;;;;;;;13.27;6.10;;;;;;;;;;5073853;28;20491;-74
2021/12/08 12:03:52;;;;;;;7.73;5.10;;;;;;;;;;5073923;28;20460;-73
2021/12/08 12:06:27;;;;;;;13.80;6.40;;;;;;;;;;5073795;28;20452;-73
2021/12/08 12:08:54;;;;;;;11.50;5.53;;;;;;;;;;5073797;28;20487;-73
2021/12/08 12:11:24;;;;;;;11.27;6.20;;;;;;;;;;5073997;28;20514;-73
2021/12/08 12:13:51;;;;;;;9.63;5.53;;;;;;;;;;5073571;28;20463;-73
2021/12/08 12:16:20;;;;;;;9.07;5.67;;;;;;;;;;5073802;28;20463;-74
2021/12/08 12:18:47;;;;;;;9.30;5.80;;;;;;;;;;5073417;28;20459;-73
2021/12/08 12:21:18;;;;;;;6.60;5.67;;;;;;;;;;5073437;28;20491;-73
2021/12/08 12:23:53;;;;;;;11.70;6.00;;;;;;;;;;5073795;28;20455;-73
2021/12/08 12:26:25;;;;;;;8.10;5.07;;;;;;;;;;5073617;28;20447;-73
2021/12/08 12:28:59;;;;;;;15.27;5.47;;;;;;;;;;5073546;28;20450;-74
2021/12/08 12:31:32;;;;;;;5.93;4.63;;;;;;;;;;5073673;28;20479;-73
2021/12/08 12:33:59;;;;;;;6.60;5.33;;;;;;;;;;5073386;28;20452;-73
2021/12/08 12:36:28;;;;;;;10.63;6.27;;;;;;;;;;5073558;28;20455;-73
2021/12/08 12:39:09;;;;;;;9.70;5.43;;;;;;;;;;5073280;28;20866;-73
2021/12/08 12:41:37;;;;;;;9.30;6.67;;;;;;;;;;5073275;28;20483;-73
2021/12/08 12:44:18;;;;;;;8.20;6.37;;;;;;;;;;5073369;28;20478;-73
2021/12/08 12:47:03;;;;;;;9.63;7.27;;;;;;;;;;5073215;28;20462;-74
2021/12/08 12:49:32;;;;;;;10.57;7.73;;;;;;;;;;5072937;28;20456;-73
2021/12/08 12:52:01;;;;;;;13.83;6.93;;;;;;;;;;5073352;28;20948;-73
2021/12/08 12:54:28;;;;;;;13.67;8.00;;;;;;;;;;5073379;28;20929;-73
2021/12/08 12:56:56;;;;;;;10.03;7.70;;;;;;;;;;5072863;28;20459;-73
2021/12/08 12:59:27;;;;;;;11.63;8.37;;;;;;;;;;5072475;28;20447;-73
2021/12/08 13:02:06;;;;;;;11.17;8.00;;;;;;;;;;5073040;28;20487;-73
2021/12/08 13:04:35;;;;;;;12.80;9.03;;;;;;;;;;5073185;28;20937;-73
2021/12/08 13:07:03;;;;;;;13.00;7.83;;;;;;;;;;5072790;28;20455;-73
2021/12/08 13:09:40;;;;;;;11.40;6.70;;;;;;;;;;5073060;28;20865;-73
2021/12/08 13:12:08;;;;;;;13.13;8.27;;;;;;;;;;5072967;28;20451;-73
2021/12/08 13:14:35;;;;;;;12.23;8.10;;;;;;;;;;5073327;28;20451;-73
2021/12/08 13:17:10;;;;;;;14.00;7.87;;;;;;;;;;5072688;28;20462;-73
2021/12/08 13:19:43;;;;;;;12.03;8.63;;;;;;;;;;5073028;28;20455;-73
2021/12/08 13:22:10;;;;;;;14.27;9.13;;;;;;;;;;5073043;28;20451;-73
2021/12/08 13:24:42;;;;;;;17.30;8.73;;;;;;;;;;5073031;28;20459;-73
2021/12/08 13:27:10;;;;;;;13.77;8.73;;;;;;;;;;5073033;28;20475;-73
2021/12/08 13:29:40;;;;;;;15.27;9.50;;;;;;;;;;5073011;28;20460;-73
2021/12/08 13:32:12;;;;;;;11.83;8.27;;;;;;;;;;5072725;28;20455;-73
2021/12/08 13:34:41;;;;;;;14.83;8.57;;;;;;;;;;5072882;28;20458;-73
2021/12/08 13:37:17;;;;;;;18.10;7.90;;;;;;;;;;5072429;28;20470;-73
2021/12/08 13:39:45;;;;;;;14.90;8.27;;;;;;;;;;5072917;28;20451;-72
2021/12/08 13:42:13;;;;;;;14.13;7.53;;;;;;;;;;5072686;28;20448;-72
2021/12/08 13:44:41;;;;;;;16.63;8.80;;;;;;;;;;5072629;28;20451;-72
2021/12/08 13:47:09;;;;;;;15.43;8.57;;;;;;;;;;5072719;28;20444;-73
2021/12/08 13:49:47;;;;;;;14.00;7.80;;;;;;;;;;5072644;28;20451;-73
2021/12/08 13:52:20;;;;;;;14.33;7.37;;;;;;;;;;5072736;28;20444;-73
2021/12/08 13:54:48;;;;;;;17.57;8.20;;;;;;;;;;5072610;28;20446;-73
2021/12/08 13:57:35;;;;;;;16.23;8.93;;;;;;;;;;5072328;28;20443;-74
2021/12/08 14:00:05;;;;;;;17.13;10.10;;;;;;;;;;5072580;28;20455;-72
2021/12/08 14:02:33;;;;;;;12.80;8.87;;;;;;;;;;5072699;28;20447;-73
2021/12/08 14:05:06;;;;;;;12.87;8.40;;;;;;;;;;5072290;28;20825;-73
2021/12/08 14:07:35;;;;;;;17.90;9.67;;;;;;;;;;5072511;28;20463;-73
2021/12/08 14:10:03;;;;;;;17.53;10.13;;;;;;;;;;5073703;28;20455;-73
2021/12/08 14:12:44;;;;;;;13.43;7.70;;;;;;;;;;5076126;28;20828;-73
2021/12/08 14:15:15;;;;;;;23.30;13.87;;;;;;;;;;5075847;28;20952;-73
2021/12/08 14:17:42;;;;;;;16.77;10.30;;;;;;;;;;5075974;28;20455;-73
2021/12/08 14:20:24;;;;;;;18.30;9.47;;;;;;;;;;5075697;28;20458;-73
2021/12/08 14:22:53;;;;;;;21.33;10.43;;;;;;;;;;5075882;28;20444;-73
2021/12/08 14:25:30;;;;;;;15.93;10.40;;;;;;;;;;5075877;28;20475;-73
2021/12/08 14:27:57;;;;;;;11.10;6.13;;;;;;;;;;5075639;28;20573;-73
2021/12/08 14:30:25;;;;;;;30.03;14.83;;;;;;;;;;5075825;28;20458;-73
2021/12/08 14:33:00;;;;;;;14.40;10.00;;;;;;;;;;5075577;28;20455;-73
2021/12/08 14:35:27;;;;;;;16.37;9.60;;;;;;;;;;5075674;28;20820;-73
2021/12/08 14:38:01;;;;;;;18.43;11.60;;;;;;;;;;5075388;28;20455;-73
2021/12/08 14:40:29;;;;;;;19.97;11.30;;;;;;;;;;5075616;28;20537;-73
2021/12/08 14:42:56;;;;;;;21.90;11.83;;;;;;;;;;5075406;28;20479;-73
2021/12/08 14:45:27;;;;;;;23.60;14.23;;;;;;;;;;5075550;28;20494;-73
2021/12/08 14:47:54;;;;;;;27.40;13.30;;;;;;;;;;5075245;28;20976;-73
2021/12/08 14:50:24;;;;;;;26.27;15.40;;;;;;;;;;5075348;28;20447;-73
2021/12/08 14:52:51;;;;;;;30.87;16.23;;;;;;;;;;5075253;28;20451;-73
2021/12/08 14:55:21;;;;;;;23.60;14.90;;;;;;;;;;5075457;28;20456;-73
2021/12/08 14:57:51;;;;;;;33.80;15.37;;;;;;;;;;5075206;28;20824;-73
2021/12/08 15:00:21;;;;;;;24.17;13.20;;;;;;;;;;5075286;28;20853;-73
2021/12/08 15:02:58;;;;;;;31.73;16.93;;;;;;;;;;5075125;28;20937;-73
2021/12/08 15:05:26;;;;;;;19.70;11.70;;;;;;;;;;5075311;28;20467;-73
2021/12/08 15:07:53;;;;;;;26.90;13.20;;;;;;;;;;5074965;28;20444;-73
2021/12/08 15:10:25;;;;;;;22.60;13.30;;;;;;;;;;5075385;28;20824;-73
2021/12/08 15:12:52;;;;;;;24.40;14.47;;;;;;;;;;5074902;28;20448;-73
2021/12/08 15:15:21;;;;;;;23.93;13.43;;;;;;;;;;5074924;28;20455;-72
2021/12/08 15:17:49;;;;;;;34.60;17.97;;;;;;;;;;5074764;28;20428;-72
2021/12/08 15:20:18;;;;;;;20.77;12.17;;;;;;;;;;5074769;28;20463;-73